Terminal Aerodrome Forecast
Issued by NWS Cleveland, OH

Home | Current Version | Previous Version | Graphics & Text | Print | Product List | Glossary On
Versions: 1 2 3 4 5 6 7 8 9 10 11 12 13 14 15 16 17 18
000
FTUS41 KCLE 302327
TAFCAK
TAF
KCAK 302327Z 0100/0124 19010KT P6SM BKN100
     FM011200 21015G25KT 5SM SHRA VCTS OVC040CB
     FM011600 21018G30KT P6SM OVC040=

USA.gov is the U.S. government's official web portal to all federal, state and local government web resources and services.